Latest Coastal Weather Observations for Laverton

IDV60701

Issued at 8:11 pm EST Saturday 5 September 2015 (issued every 10 minutes, with the page automatically refreshed every 10 minutes)

About coastal observations | Map of coastal stations | Coastal observations for VIC | Marine services | Other Formats
Station Details ID: 087031 Name: LAVERTON RAAF Lat: -37.86 Lon: 144.76 Height: 20.1 m
Data from the previous 72 hours. | See also: Recent months at Laverton
Date/Time
EST
Temp

°C
Wind Pressure Rain
since 9am
mm
Weather Cloud Vis
km
Sea
Height
m
Swell
Dir
 
Speed
knots
Gust
knots
hPa Trend Height
m
Period
s
Dir
05/08:00pm 9.5 SE 4 5 1023.4 - 0.0 - - 10 - - - -
05/07:30pm 9.6 SE 4 5 1023.5 - 0.0 - - 10 - - - -
05/07:00pm 9.5 ESE 4 6 1023.0 - 0.0 - - 10 - - - -
05/06:30pm 10.1 ESE 6 9 1022.8 - 0.0 - - 10 - - - -
05/06:00pm 10.4 ESE 4 6 1022.9 - 0.0 - - 10 - - - -
05/05:30pm 11.7 SE 5 7 1022.5 - 0.0 - - 10 - - - -
05/05:00pm 12.6 SSE 6 8 1022.6 - 0.0 - - 10 - - - -
05/04:30pm 13.3 S 7 10 1022.9 - 0.0 - - 10 - - - -
05/04:00pm 13.2 SSE 6 9 1022.8 - 0.0 - Partly cloudy 10 - - - -
05/03:30pm 13.7 SSE 7 10 1023.1 - 0.0 - Partly cloudy 10 - - - -
05/03:00pm 13.5 SSW 7 10 1023.2 - 0.0 - Mostly clear 10 - - - -
05/02:30pm 13.4 SSE 6 9 1023.1 - 0.0 - Partly cloudy 10 - - - -
05/02:00pm 13.7 SE 6 9 1023.2 - 0.0 - Cloudy 10 - - - -
05/01:30pm 13.4 SSE 7 9 1023.5 - 0.0 - Cloudy 10 - - - -
05/01:00pm 13.4 SE 7 12 1023.9 - 0.0 - Cloudy 10 - - - -
05/12:30pm 13.2 SSE 7 9 1024.4 - 0.0 - Cloudy 10 - - - -
05/12:00pm 12.8 SSE 6 8 1024.7 - 0.0 - Cloudy 10 - - - -
05/11:30am 12.1 SSE 5 7 1025.0 - 0.0 - Cloudy 10 - - - -
05/11:00am 11.6 SSE 7 9 1025.3 - 0.0 - Partly cloudy 10 - - - -
05/10:30am 11.4 SW 7 9 1025.4 - 0.0 - Partly cloudy 10 - - - -
05/10:00am 11.5 SSW 9 12 1025.6 - 0.0 - Partly cloudy 10 - - - -
05/09:30am 11.8 SW 9 12 1025.6 - 0.0 - Partly cloudy 10 - - - -
05/09:00am 11.4 SW 7 10 1025.6 - 0.0 - Cloudy 10 - - - -
05/08:30am 10.8 WSW 6 9 1025.6 - 0.0 - Cloudy 10 - - - -
05/08:00am 10.2 WSW 5 7 1025.5 - 0.0 - Partly cloudy 10 - - - -
05/07:30am 9.8 W 5 7 1025.1 - 0.0 - Cloudy 10 - - - -
05/07:00am 9.5 W 6 7 1024.8 - 0.0 - Cloudy 10 - - - -
05/06:30am 9.2 WNW 5 7 1024.5 - 0.0 - Cloudy 10 - - - -
05/06:00am 9.5 WSW 5 7 1024.4 - 0.0 - Cloudy 10 - - - -
05/05:30am 9.4 WNW 5 6 1024.2 - 0.0 - Cloudy 10 - - - -
05/05:00am 9.5 W 5 8 1024.0 - 0.0 - Cloudy 10 - - - -
05/04:30am 9.5 W 5 7 1023.7 - 0.0 - Cloudy 10 - - - -
05/04:00am 9.5 W 6 7 1023.6 - 0.0 - Cloudy 10 - - - -
05/03:30am 9.4 WNW 5 6 1023.5 - 0.0 - Cloudy 10 - - - -
05/03:00am 9.5 WSW 5 6 1023.7 - 0.0 - Cloudy 10 - - - -
05/02:30am 9.6 W 6 7 1024.2 - 0.0 - Cloudy 10 - - - -
05/02:00am 9.8 W 5 7 1024.4 - 0.0 - Cloudy 10 - - - -
05/01:30am 9.8 WNW 6 8 1024.6 - 0.0 - Cloudy 10 - - - -
05/01:00am 10.2 W 7 9 1024.8 - 0.0 - Cloudy 10 - - - -
05/12:30am 10.2 WSW 8 10 1025.0 - 0.0 - Partly cloudy 10 - - - -
05/12:00am 9.8 WSW 5 9 1025.1 - 0.0 - Cloudy 10 - - - -
 
Date/Time
EST
Temp

°C
Wind Pressure Rain
since 9am
mm
Weather Cloud Vis
km
Sea
Height
m
Swell
Dir
 
Speed
knots
Gust
knots
hPa Trend Height
m
Period
s
Dir
04/11:30pm 10.0 WSW 6 9 1025.3 - 0.0 - Cloudy 10 - - - -
04/11:00pm 10.2 WSW 6 8 1025.5 - 0.0 - Cloudy 10 - - - -
04/10:30pm 10.2 WSW 6 9 1025.6 - 0.0 - Cloudy 10 - - - -
04/10:00pm 10.5 WSW 7 9 1025.6 - 0.0 - Cloudy 10 - - - -
04/09:30pm 11.0 WSW 7 9 1025.7 - 0.0 - Cloudy 10 - - - -
04/09:00pm 11.0 SSW 4 5 1025.5 - 0.0 - Cloudy 10 - - - -
04/08:30pm 11.0 SSW 4 5 1025.4 - 0.0 - Partly cloudy 10 - - - -
04/08:00pm 11.0 S 4 5 1025.3 - 0.0 - Partly cloudy 10 - - - -
04/07:30pm 10.9 SSE 4 6 1025.2 - 0.0 - Partly cloudy 10 - - - -
04/07:00pm 11.1 SSE 5 7 1025.1 - 0.0 - Partly cloudy 10 - - - -
04/06:30pm 11.0 SE 6 8 1024.9 - 0.0 - Partly cloudy 10 - - - -
04/06:00pm 11.1 SE 6 9 1024.7 - 0.0 - Cloudy 10 - - - -
04/05:30pm 11.2 SE 6 8 1024.6 - 0.0 - Partly cloudy 10 - - - -
04/05:00pm 11.5 SE 7 9 1024.3 - 0.0 - Cloudy 10 - - - -
04/04:30pm 11.8 SE 7 9 1024.1 - 0.0 - Cloudy 10 - - - -
04/04:00pm 12.4 SSE 8 10 1024.1 - 0.0 - Cloudy 10 - - - -
04/03:30pm 13.0 SSW 9 13 1024.1 - 0.0 - Cloudy 10 - - - -
04/03:00pm 13.0 SSW 8 11 1024.0 - 0.0 - Mostly cloudy 10 - - - -
04/02:30pm 13.4 S 9 13 1023.9 - 0.0 - Cloudy 10 - - - -
04/02:00pm 13.2 SSW 9 12 1024.2 - 0.0 - Partly cloudy 10 - - - -
04/01:30pm 12.7 S 9 12 1024.5 - 0.0 - Partly cloudy 10 - - - -
04/01:00pm 13.1 SSW 10 14 1024.8 - 0.0 - Cloudy 10 - - - -
04/12:30pm 12.8 SW 9 13 1025.2 - 0.0 - Partly cloudy 10 - - - -
04/12:00pm 12.4 SW 10 13 1025.6 - 0.0 - Cloudy 10 - - - -
04/11:30am 12.2 SSW 7 11 1025.9 - 0.0 - Partly cloudy 10 - - - -
04/11:00am 11.8 SSW 7 11 1026.1 - 0.0 - Partly cloudy 10 - - - -
04/10:30am 11.7 SW 6 9 1026.1 - 0.0 - Cloudy 10 - - - -
04/10:00am 11.7 SSE 4 8 1026.0 - 0.0 - Cloudy 10 - - - -
04/09:30am 11.0 SW 5 9 1026.0 - 0.0 - Cloudy 10 - - - -
04/09:00am 10.2 WSW 5 7 1026.0 - 0.0 - Cloudy 10 - - - -
04/08:30am 8.9 W 5 6 1026.0 - 0.0 - Partly cloudy 10 - - - -
04/08:00am 7.5 W 4 6 1025.8 - 0.0 - - 10 - - - -
04/07:30am 5.2 WNW 6 6 1025.6 - 0.0 - - 10 - - - -
04/07:00am 5.4 W 5 7 1025.3 - 0.0 - Partly cloudy 10 - - - -
04/06:30am 5.5 W 5 7 1025.0 - 0.0 - Partly cloudy 10 - - - -
04/06:00am 6.4 WSW 6 7 1024.9 - 0.0 - Partly cloudy 10 - - - -
04/05:30am 6.7 WSW 5 7 1024.7 - 0.0 - Partly cloudy 10 - - - -
04/05:00am 7.1 WSW 6 7 1024.3 - 0.0 - Partly cloudy 10 - - - -
04/04:30am 7.9 WSW 5 7 1024.1 - 0.0 - Cloudy 10 - - - -
04/04:00am 7.8 WSW 6 7 1024.0 - 0.0 - Cloudy 10 - - - -
04/03:30am 7.8 WSW 5 6 1024.0 - 0.0 - Cloudy 10 - - - -
04/03:00am 7.2 WNW 4 6 1024.0 - 0.0 - Cloudy 10 - - - -
04/02:30am 7.0 W 5 6 1024.0 - 0.0 - Cloudy 10 - - - -
04/02:00am 7.2 W 5 7 1024.2 - 0.0 - Partly cloudy 10 - - - -
04/01:30am 7.2 WSW 4 6 1024.1 - 0.0 - Partly cloudy 10 - - - -
04/01:00am 7.4 WSW 5 6 1024.2 - 0.0 - Partly cloudy 10 - - - -
04/12:30am 7.5 SW 5 7 1024.1 - 0.0 - Partly cloudy 10 - - - -
04/12:00am 8.8 SW 7 10 1023.9 - 0.0 - Mostly cloudy 10 - - - -
 
Date/Time
EST
Temp

°C
Wind Pressure Rain
since 9am
mm
Weather Cloud Vis
km
Sea
Height
m
Swell
Dir
 
Speed
knots
Gust
knots
hPa Trend Height
m
Period
s
Dir
03/11:30pm 9.4 SW 7 10 1023.8 - 0.0 - Cloudy 10 - - - -
03/11:00pm 9.6 SW 7 10 1023.8 - 0.0 - Partly cloudy 10 - - - -
03/10:30pm 10.0 SW 7 9 1023.5 - 0.0 - Partly cloudy 10 - - - -
03/10:00pm 10.1 SW 6 7 1023.4 - 0.0 - Partly cloudy 10 - - - -
03/09:30pm 9.9 SW 6 8 1023.1 - 0.0 - Partly cloudy 10 - - - -
03/09:00pm 9.9 SW 7 9 1022.6 - 0.0 - Mostly cloudy 10 - - - -
03/08:30pm 10.2 SW 7 9 1022.4 - 0.0 - Partly cloudy 10 - - - -
03/08:00pm 10.2 SSW 6 8 1022.3 - 0.0 - Partly cloudy 10 - - - -
03/07:30pm 10.2 SSW 7 10 1021.8 - 0.0 - Partly cloudy 10 - - - -
03/07:00pm 10.4 SSW 8 11 1021.4 - 0.0 - Partly cloudy 10 - - - -
03/06:30pm 10.5 SSW 8 11 1020.9 - 0.0 - Partly cloudy 10 - - - -
03/06:00pm 11.2 S 10 13 1020.6 - 0.0 - Mostly cloudy 10 - - - -
03/05:30pm 11.5 SSW 11 15 1020.0 - 0.0 - Partly cloudy 10 - - - -
03/05:00pm 12.0 SSW 15 22 1019.4 - 0.0 - Partly cloudy 10 - - - -
03/04:30pm 12.4 S 15 20 1018.7 - 0.0 - Partly cloudy 10 - - - -
03/04:00pm 13.5 S 15 23 1018.4 - 0.0 - Partly cloudy 10 - - - -
03/03:30pm 13.8 S 14 20 1017.9 - 0.0 - Partly cloudy 10 - - - -
03/03:00pm 13.4 S 17 25 1017.5 - 0.0 - Partly cloudy 10 - - - -
03/02:30pm 13.8 S 17 22 1017.0 - 0.0 - Partly cloudy 10 - - - -
03/02:00pm 14.1 S 15 23 1016.7 - 0.0 - Partly cloudy 10 - - - -
03/01:30pm 14.1 S 15 22 1016.5 - 0.0 - Partly cloudy 10 - - - -
03/01:00pm 13.2 S 14 20 1016.5 - 0.0 - Partly cloudy 10 - - - -
03/12:30pm 13.1 S 11 13 1016.3 - 0.0 - Partly cloudy 10 - - - -
03/12:00pm 13.1 S 12 18 1016.1 - 0.0 - Mostly cloudy 10 - - - -
03/11:32am 12.7 S 11 17 1015.9 - 0.0 - Partly cloudy 10 - - - -
03/11:30am 12.6 S 11 17 1015.9 - 0.0 - Partly cloudy 10 - - - -
03/11:22am 12.6 S 11 17 1015.8 - 0.0 - Partly cloudy 10 - - - -
03/11:00am 12.6 SSW 12 16 1015.5 - 0.0 - Partly cloudy 10 - - - -
03/10:30am 12.6 SSW 13 18 1015.0 - 0.0 - Partly cloudy 10 - - - -
03/10:00am 13.0 SSW 11 15 1014.5 - 0.0 - Cloudy 10 - - - -
03/09:30am 12.9 SSW 13 17 1013.8 - 0.0 - Cloudy 10 - - - -
03/09:00am 12.9 SSW 9 13 1013.1 - 7.0 - Mostly cloudy 10 - - - -
03/08:30am 12.7 SSW 7 10 1012.5 - 7.0 - Partly cloudy 10 - - - -
03/08:00am 12.0 SSW 7 9 1012.0 - 7.0 - Cloudy 10 - - - -
03/07:30am 11.5 SSW 5 6 1011.4 - 7.0 - Cloudy 10 - - - -
03/07:00am 11.6 S 9 12 1010.6 - 7.0 - Cloudy 10 - - - -
03/06:30am 11.4 S 8 11 1009.9 - 7.0 - Partly cloudy 10 - - - -
03/06:00am 11.3 SSW 7 10 1009.5 - 7.0 Recent precip. Cloudy 10 - - - -
03/05:30am 11.0 SW 6 8 1009.1 - 7.0 - Partly cloudy 10 - - - -
03/05:00am 10.8 WSW 1 4 1009.0 - 6.8 - Cloudy 10 - - - -
03/04:30am 11.0 W 5 7 1008.6 - 6.8 - Cloudy 10 - - - -
03/04:00am 11.1 SW 5 7 1008.2 - 6.8 - Cloudy 10 - - - -
03/03:30am 10.9 S 5 8 1007.8 - 6.8 - Cloudy 10 - - - -
03/03:00am 10.8 S 6 7 1007.6 - 6.8 - Cloudy 10 - - - -
03/02:30am 10.7 SE 5 7 1007.6 - 6.8 - Cloudy 10 - - - -
03/02:00am 10.7 SE 4 5 1007.6 - 6.8 - Cloudy 10 - - - -
03/01:30am 10.8 ESE 2 3 1007.5 - 6.8 - Cloudy 10 - - - -
03/01:00am 10.7 ESE 3 4 1007.5 - 6.8 - Cloudy 10 - - - -
03/12:30am 10.5 ESE 5 5 1007.5 - 6.8 - Partly cloudy 10 - - - -
03/12:00am 10.6 ESE 3 4 1007.4 - 6.8 - Cloudy 10 - - - -
 
Date/Time
EST
Temp

°C
Wind Pressure Rain
since 9am
mm
Weather Cloud Vis
km
Sea
Height
m
Swell
Dir
 
Speed
knots
Gust
knots
hPa Trend Height
m
Period
s
Dir
02/11:30pm 10.7 ESE 3 4 1007.5 - 6.8 - Partly cloudy 10 - - - -
02/11:00pm 10.8 E 5 6 1007.5 - 6.8 - Partly cloudy 10 - - - -
02/10:30pm 10.8 ESE 5 7 1007.5 - 6.8 - Cloudy 10 - - - -
02/10:00pm 10.8 ESE 4 5 1007.9 - 6.8 - Partly cloudy 10 - - - -
02/09:30pm 10.9 ESE 4 5 1008.2 - 6.8 - Partly cloudy 10 - - - -
02/09:00pm 11.1 SE 3 4 1008.3 - 6.6 Recent precip. Cloudy 10 - - - -
02/08:30pm 11.4 SE 3 4 1008.6 - 6.2 - Partly cloudy 10 - - - -

Other Formats:

Comma delimited format used in spreadsheet applications
http://www.bom.gov.au/fwo/IDV60701/IDV60701.94865.axf

JavaScript Object Notation format (JSON) in row-major order
http://www.bom.gov.au/fwo/IDV60701/IDV60701.94865.json